Memphis, Tennessee
Current Conditions -  °F | °C
As of 10:54 AM on Friday 24 Oct 2014 (Local Time) from KMEM Reporting Station
Few Clouds Few Clouds  
Wind Chill: 65°   Ceiling: Unl
Heat Index: 65°   Visibility: 10mi
Dew Point: 45°   Wind: 6mph
Humidity: 48%   Direction: 310°NW
Pressure: 30.16"   Gusts: NA
Location:  35.15°N, 90.05°W
Report Text: KMEM 241554Z 31005KT 10SM FEW250 18/07 A3016 RMK AO2 SLP210 T01830072 $
Loading
Personal Weather Stations






























Interactive Weather Map New forecast layout! Learn more

10-Day Weather Forecast

Advertisements
Track Severe Weather on mobile